Latest Weather Observations for Mareeba

IDQ60801

Issued at 9:02 am EST Tuesday 7 December 2021 (issued every 10 minutes, with the page automatically refreshed every 10 minutes)

About weather observations | Map of weather stations | Latest weather observations for QLD | Other Formats
Station Details ID: 031210 Name: MAREEBA AIRPORT Lat: -17.07 Lon: 145.43 Height: 471.93 m
Data from the previous 72 hours. | See also: Recent months at Mareeba
Date/Time
EST
Temp
°C
App
Temp
°C
Dew
Point
°C
Rel
Hum
%
Delta-T
°C
Wind Press
QNH
hPa
Press
MSL
hPa
Rain since
9am
mm
Dir  Spd
km/h
Gust
km/h
Spd
kts
Gust
kts
07/09:00am 28.4 27.8 18.5 55 6.5 SE 19 30 10 16 1013.5 1010.2 0.0
07/08:30am 27.9 26.6 19.1 58 5.8 SE 24 32 13 17 1013.4 1010.1 0.0
07/08:00am 26.7 25.8 19.8 66 4.6 SE 24 33 13 18 1012.8 1009.6 0.0
07/07:30am 25.6 25.8 20.2 72 3.6 SE 19 28 10 15 1012.6 1009.4 0.0
07/07:00am 24.1 24.7 20.2 79 2.6 SSE 17 24 9 13 1012.6 1009.4 0.0
07/06:30am 23.1 24.4 20.1 83 2.0 SSE 13 17 7 9 1012.4 1009.1 0.0
07/06:00am 22.1 22.9 19.8 87 1.5 SSE 15 20 8 11 1012.1 1008.8 0.0
07/05:30am 21.9 22.6 19.6 87 1.5 SSE 15 20 8 11 1011.8 1008.5 0.0
07/05:00am 21.9 22.3 19.8 88 1.4 SSE 17 24 9 13 1011.5 1008.2 0.0
07/04:30am 21.6 22.3 19.7 89 1.2 SE 15 22 8 12 1011.0 1007.7 0.0
07/04:00am 21.1 22.2 19.6 91 1.0 SSE 13 17 7 9 1011.0 1007.7 0.0
07/03:30am 21.1 22.8 19.4 90 1.1 SSE 9 15 5 8 1011.0 1007.7 0.0
07/03:00am 21.1 22.0 19.2 89 1.2 SSE 13 17 7 9 1011.1 1007.8 0.0
07/02:30am 21.5 22.8 19.2 87 1.5 ESE 11 15 6 8 1011.1 1007.8 0.0
07/02:00am 21.4 22.2 19.1 87 1.5 SSE 13 15 7 8 1011.3 1008.0 0.0
07/01:30am 21.7 22.5 19.1 85 1.7 SE 13 19 7 10 1011.1 1007.8 0.0
07/01:00am 21.6 23.4 19.5 88 1.4 SE 9 13 5 7 1011.5 1008.2 0.0
07/12:30am 21.7 23.1 19.6 88 1.4 SE 11 15 6 8 1011.8 1008.5 0.0
07/12:00am 21.9 23.8 19.8 88 1.4 SE 9 13 5 7 1012.2 1008.9 0.0
 
Date/Time
EST
Temp
°C
App
Temp
°C
Dew
Point
°C
Rel
Hum
%
Delta-T
°C
Wind Press
QNH
hPa
Press
MSL
hPa
Rain since
9am
mm
Dir  Spd
km/h
Gust
km/h
Spd
kts
Gust
kts
06/11:30pm 22.4 24.4 19.9 86 1.6 SE 9 13 5 7 1012.3 1009.0 0.0
06/11:00pm 22.8 24.0 20.0 84 1.8 SE 13 19 7 10 1012.4 1009.1 0.0
06/10:30pm 23.1 24.3 19.9 82 2.1 SE 13 19 7 10 1012.6 1009.4 0.0
06/10:00pm 23.3 23.7 19.9 81 2.2 SE 17 24 9 13 1012.3 1009.0 0.0
06/09:30pm 23.8 23.9 19.9 79 2.6 SE 19 28 10 15 1012.2 1008.9 0.0
06/09:00pm 24.2 23.6 19.7 76 3.0 SE 22 30 12 16 1012.1 1008.8 0.0
06/08:30pm 24.3 24.1 19.8 76 3.0 SE 20 30 11 16 1011.8 1008.5 0.0
06/08:00pm 24.6 24.7 19.9 75 3.1 SE 19 28 10 15 1011.7 1008.4 0.0
06/07:30pm 25.2 24.5 19.6 71 3.7 SE 22 32 12 17 1011.6 1008.3 0.0
06/07:00pm 25.7 25.2 19.1 67 4.3 SE 20 32 11 17 1011.2 1007.9 0.0
06/06:30pm 26.4 25.4 18.8 63 5.0 SE 22 30 12 16 1011.0 1007.7 0.0
06/06:00pm 27.2 25.3 18.5 59 5.7 ESE 26 37 14 20 1010.2 1006.9 0.0
06/05:30pm 28.5 27.0 17.7 52 7.0 SE 22 32 12 17 1010.0 1006.7 0.0
06/05:00pm 29.3 27.6 19.0 53 6.8 SE 26 35 14 19 1009.5 1006.2 0.0
06/04:30pm 30.7 29.2 17.7 45 8.4 SE 22 32 12 17 1009.1 1005.8 0.0
06/04:00pm 31.5 28.9 15.0 36 10.4 SE 22 33 12 18 1008.9 1005.6 0.0
06/03:30pm 32.7 29.2 13.4 31 11.9 ESE 24 35 13 19 1008.7 1005.3 0.0
06/03:00pm 32.3 28.7 13.0 31 11.8 SE 24 35 13 19 1008.8 1005.5 0.0
06/02:30pm 32.3 29.5 14.4 33 11.1 SE 22 33 12 18 1009.2 1005.9 0.0
06/02:00pm 32.6 29.8 13.3 31 11.9 SSE 20 32 11 17 1009.6 1006.3 0.0
06/01:30pm 32.0 29.9 14.6 34 10.9 SSE 19 30 10 16 1009.8 1006.5 0.0
06/01:00pm 31.5 29.4 14.6 35 10.5 SSE 19 28 10 15 1010.3 1007.0 0.0
06/12:30pm 30.8 28.8 15.6 39 9.6 SE 20 32 11 17 1010.6 1007.4 0.0
06/12:00pm 31.5 29.1 13.7 33 11.0 ESE 19 28 10 15 1010.9 1007.6 0.0
06/11:30am 31.1 29.4 14.7 37 10.2 E 17 28 9 15 1011.1 1007.8 0.0
06/11:00am 30.7 28.5 14.3 36 10.2 ESE 19 30 10 16 1011.5 1008.2 0.0
06/10:30am 30.4 29.7 15.3 40 9.5 E 13 20 7 11 1011.7 1008.4 0.0
06/10:00am 29.4 29.0 16.2 44 8.4 ESE 13 24 7 13 1012.2 1008.9 0.0
06/09:30am 28.8 29.0 17.7 51 7.2 E 13 20 7 11 1012.4 1009.1 0.0
06/09:00am 27.9 26.6 16.8 50 7.1 ESE 19 30 10 16 1012.3 1009.0 0.0
06/08:30am 26.7 25.5 17.5 57 5.9 ESE 20 30 11 16 1012.2 1008.9 0.0
06/08:00am 25.7 25.1 18.4 64 4.7 ESE 19 24 10 13 1012.1 1008.8 0.0
06/07:30am 24.7 25.1 19.1 71 3.6 ESE 15 22 8 12 1012.2 1008.9 0.0
06/07:00am 23.4 23.6 19.3 78 2.7 SE 17 20 9 11 1012.1 1008.8 0.0
06/06:30am 22.3 23.9 19.1 82 2.1 SE 9 13 5 7 1011.9 1008.6 0.0
06/06:00am 21.1 21.4 18.7 86 1.5 SE 15 20 8 11 1011.3 1008.0 0.0
06/05:30am 21.1 21.0 18.7 86 1.5 SSE 17 20 9 11 1010.8 1007.5 0.0
06/05:00am 20.5 20.7 18.6 89 1.2 SSE 15 20 8 11 1010.1 1006.8 0.0
06/04:30am 20.5 20.4 18.8 90 1.1 SSE 17 19 9 10 1009.9 1006.6 0.0
06/04:00am 20.1 20.7 18.6 91 1.0 SSE 13 15 7 8 1009.9 1006.6 0.0
06/03:30am 20.1 21.1 18.6 91 1.0 SSE 11 17 6 9 1009.7 1006.4 0.0
06/03:00am 20.1 21.5 18.6 91 1.0 SSE 9 13 5 7 1010.1 1006.8 0.0
06/02:30am 20.2 21.2 18.7 91 1.0 SSE 11 13 6 7 1010.3 1007.0 0.0
06/02:00am 20.4 21.1 18.9 91 1.0 SSE 13 15 7 8 1010.3 1007.0 0.0
06/01:30am 20.6 22.1 18.9 90 1.1 SSE 9 13 5 7 1010.8 1007.5 0.0
06/01:00am 20.6 21.6 18.7 89 1.2 SSE 11 17 6 9 1011.1 1007.8 0.0
06/12:30am 20.5 21.1 18.6 89 1.2 SSE 13 17 7 9 1011.3 1008.0 0.0
06/12:00am 20.5 21.9 18.6 89 1.2 SSE 9 13 5 7 1011.5 1008.2 0.0
 
Date/Time
EST
Temp
°C
App
Temp
°C
Dew
Point
°C
Rel
Hum
%
Delta-T
°C
Wind Press
QNH
hPa
Press
MSL
hPa
Rain since
9am
mm
Dir  Spd
km/h
Gust
km/h
Spd
kts
Gust
kts
05/11:30pm 20.2 21.9 18.1 88 1.3 S 6 9 3 5 1011.7 1008.4 0.0
05/11:00pm 20.5 21.8 18.4 88 1.3 S 9 9 5 5 1011.9 1008.6 0.0
05/10:30pm 20.5 22.0 17.5 83 1.9 ESE 6 7 3 4 1011.8 1008.5 0.0
05/10:00pm 21.4 23.0 17.8 80 2.3 SE 6 13 3 7 1011.7 1008.4 0.0
05/09:30pm 21.3 23.6 16.7 75 2.9 CALM 0 0 0 0 1011.5 1008.2 0.0
05/09:00pm 21.8 23.2 16.5 72 3.3 SSE 4 7 2 4 1011.2 1007.9 0.0
05/08:30pm 22.8 23.6 15.9 65 4.2 SE 6 7 3 4 1011.0 1007.7 0.0
05/08:00pm 23.3 22.8 14.8 59 5.2 S 11 13 6 7 1010.8 1007.5 0.0
05/07:30pm 24.9 23.5 14.4 52 6.4 SE 15 19 8 10 1010.4 1007.1 0.0
05/07:00pm 25.5 23.1 12.7 45 7.6 SE 17 24 9 13 1010.0 1006.7 0.0
05/06:30pm 26.6 24.2 12.6 41 8.3 SE 17 20 9 11 1010.0 1006.7 0.0
05/06:00pm 28.2 25.5 11.7 36 9.7 SE 17 24 9 13 1009.9 1006.6 0.0
05/05:30pm 29.5 27.8 12.4 35 10.2 SE 13 20 7 11 1009.6 1006.3 0.0
05/05:00pm 30.1 27.1 12.1 33 10.8 ESE 19 28 10 15 1009.3 1006.0 0.0
05/04:30pm 30.5 27.6 12.9 34 10.6 SE 20 28 11 15 1009.2 1005.9 0.0
05/04:00pm 31.1 28.6 13.4 34 10.8 SE 19 30 10 16 1009.2 1005.9 0.0
05/03:30pm 30.9 27.3 13.2 34 10.8 SE 24 35 13 19 1009.3 1006.0 0.0
05/03:00pm 31.9 28.2 12.7 31 11.7 SE 24 35 13 19 1009.2 1005.9 0.0
05/02:30pm 31.7 27.8 14.4 35 10.8 SE 28 37 15 20 1009.4 1006.1 0.0
05/02:00pm 31.4 29.2 15.0 37 10.3 SSE 20 33 11 18 1009.7 1006.4 0.0
05/01:30pm 31.7 28.9 14.4 35 10.8 ESE 22 35 12 19 1010.0 1006.7 0.0
05/01:00pm 32.0 27.8 11.2 28 12.4 ESE 24 35 13 19 1010.3 1007.0 0.0
05/12:30pm 31.6 27.3 11.9 30 11.8 ESE 26 50 14 27 1010.6 1007.4 0.0
05/12:00pm 31.2 30.0 17.5 44 8.9 SE 20 28 11 15 1010.9 1007.6 0.0
05/11:30am 30.5 28.1 16.5 43 8.9 SSE 24 37 13 20 1011.2 1007.9 0.0
05/11:00am 30.2 27.9 16.6 44 8.7 SSE 24 37 13 20 1011.5 1008.2 0.0
05/10:30am 29.9 28.4 16.7 45 8.4 SE 20 30 11 16 1011.6 1008.3 0.0
05/10:00am 29.1 27.7 15.6 44 8.5 SE 17 26 9 14 1011.8 1008.5 0.0
05/09:30am 28.4 26.8 16.0 47 7.8 SSE 19 32 10 17 1012.0 1008.7 0.0
05/09:00am 27.9 27.0 18.3 56 6.2 SE 20 30 11 16 1012.2 1008.9 0.0
05/08:30am 26.6 26.0 18.5 61 5.3 SE 19 28 10 15 1012.3 1009.0 0.0
05/08:00am 25.8 26.0 19.4 67 4.2 SE 17 24 9 13 1012.1 1008.8 0.0
05/07:30am 24.7 24.8 19.1 71 3.6 SSE 17 24 9 13 1012.1 1008.8 0.0
05/07:00am 23.1 24.2 18.8 77 2.8 SSE 11 15 6 8 1012.1 1008.8 0.0
05/06:30am 21.9 23.0 18.9 83 1.9 SSE 11 15 6 8 1011.8 1008.5 0.0
05/06:00am 21.1 21.4 18.7 86 1.5 SE 15 19 8 10 1011.5 1008.2 0.0
05/05:30am 20.5 20.3 18.4 88 1.3 SE 17 20 9 11 1011.1 1007.8 0.0
05/05:00am 20.3 19.9 18.1 87 1.4 SE 17 20 9 11 1010.5 1007.2 0.0
05/04:30am 20.2 19.4 18.0 87 1.4 SE 19 20 10 11 1010.4 1007.1 0.0
05/04:00am 20.4 19.6 18.0 86 1.5 SE 19 24 10 13 1010.5 1007.2 0.0
05/03:52am 20.6 19.8 18.0 85 1.6 SE 19 24 10 13 1010.5 1007.2 0.0
05/03:40am 20.6 19.7 17.8 84 1.8 SE 19 24 10 13 1010.6 1007.4 0.0
05/03:30am 20.6 20.1 17.8 84 1.8 SE 17 20 9 11 1010.5 1007.2 0.0
05/03:00am 21.0 20.6 18.0 83 1.9 SE 17 24 9 13 1010.6 1007.4 0.0
05/02:30am 21.3 21.2 17.9 81 2.1 ESE 15 20 8 11 1010.6 1007.4 0.0
05/02:00am 21.4 20.9 17.8 80 2.3 SE 17 22 9 12 1010.6 1007.4 0.0
05/01:30am 21.7 20.9 17.9 79 2.4 SE 19 24 10 13 1010.9 1007.6 0.0
05/01:00am 21.9 21.1 18.1 79 2.4 SE 19 26 10 14 1011.3 1008.0 0.0
05/12:30am 22.3 21.9 18.1 77 2.7 ESE 17 22 9 12 1011.6 1008.3 0.0
05/12:00am 22.3 21.9 18.1 77 2.7 SE 17 20 9 11 1011.9 1008.6 0.0
 
Date/Time
EST
Temp
°C
App
Temp
°C
Dew
Point
°C
Rel
Hum
%
Delta-T
°C
Wind Press
QNH
hPa
Press
MSL
hPa
Rain since
9am
mm
Dir  Spd
km/h
Gust
km/h
Spd
kts
Gust
kts
04/11:30pm 22.3 22.4 18.3 78 2.6 SE 15 19 8 10 1012.1 1008.8 0.0
04/11:00pm 22.7 22.0 18.3 76 2.8 SE 19 24 10 13 1012.3 1009.0 0.0
04/10:30pm 23.0 22.2 18.5 76 2.9 SE 20 26 11 14 1012.4 1009.1 0.0
04/10:00pm 23.1 22.4 18.6 76 2.9 SE 20 28 11 15 1012.5 1009.3 0.0
04/09:30pm 23.4 23.3 18.7 75 3.0 SE 17 20 9 11 1012.2 1008.9 0.0
04/09:00pm 23.5 23.8 17.9 71 3.6 SE 13 15 7 8 1012.2 1008.9 0.0
04/08:30pm 23.9 24.1 17.6 68 4.0 ESE 13 17 7 9 1012.0 1008.7 0.0
04/08:00pm 24.5 24.5 17.2 63 4.6 ESE 13 22 7 12 1011.8 1008.5 0.0
04/07:30pm 25.4 24.4 16.5 57 5.6 SE 17 22 9 12 1011.5 1008.2 0.0
04/07:00pm 26.8 25.8 15.5 50 7.0 ESE 15 26 8 14 1011.2 1007.9 0.0
04/06:30pm 27.3 25.4 15.7 49 7.2 SE 20 26 11 14 1010.9 1007.6 0.0
04/06:00pm 28.4 26.7 16.3 47 7.7 SE 20 28 11 15 1010.8 1007.5 0.0
04/05:30pm 29.2 26.6 16.0 44 8.3 ESE 24 32 13 17 1010.4 1007.1 0.0
04/05:00pm 29.9 26.8 15.6 42 9.0 SSE 26 33 14 18 1010.0 1006.7 0.0
04/04:30pm 31.4 29.7 16.2 40 9.7 SE 20 30 11 16 1009.9 1006.6 0.0
04/04:00pm 31.3 28.9 16.5 41 9.5 SE 24 33 13 18 1009.8 1006.5 0.0
04/03:30pm 31.6 29.5 17.1 41 9.4 SE 24 35 13 19 1009.8 1006.5 0.0
04/03:00pm 31.7 29.4 15.6 37 10.2 SE 22 30 12 16 1009.8 1006.5 0.0
04/02:30pm 31.6 28.4 16.4 40 9.7 SE 28 43 15 23 1010.3 1007.0 0.0
04/02:00pm 31.9 28.8 16.6 39 9.8 SE 28 39 15 21 1010.5 1007.2 0.0
04/01:30pm 32.0 29.3 16.7 40 9.8 ESE 26 37 14 20 1011.1 1007.8 0.0
04/01:00pm 31.7 29.3 16.4 39 9.8 ESE 24 35 13 19 1011.7 1008.4 0.0
04/12:30pm 31.5 30.4 17.8 44 8.9 SE 20 33 11 18 1012.0 1008.7 0.0
04/12:00pm 30.7 28.4 17.7 45 8.4 SE 26 35 14 19 1012.5 1009.3 0.0
04/11:30am 30.2 28.8 18.0 48 7.9 SE 22 33 12 18 1013.0 1009.7 0.0
04/11:00am 31.0 30.4 19.7 51 7.6 SE 22 32 12 17 1013.1 1009.8 0.0
04/10:30am 30.4 28.7 18.2 48 8.0 ESE 24 35 13 19 1013.2 1009.9 0.0
04/10:00am 30.0 29.0 18.8 51 7.4 ESE 22 35 12 19 1013.3 1010.0 0.0
04/09:30am 29.4 29.5 20.0 57 6.3 ESE 19 28 10 15 1013.5 1010.2 0.0

Other formats

Comma delimited format used in spreadsheet applications
http://www.bom.gov.au/fwo/IDQ60801/IDQ60801.95286.axf

JavaScript Object Notation format (JSON) in row-major order
http://www.bom.gov.au/fwo/IDQ60801/IDQ60801.95286.json

Data quality

Most of these data are generated automatically and are frequently updated. Quality checks on data are not normally performed. It is possible for incorrect values to appear. Refer to information at About Latest Weather Observations and please check the disclaimer before using these data.